Ellis Prairie, Missouri
Current Conditions -  °F | °C
As of 6:58 AM on Friday 28 Nov 2014 (Local Time) from KTBN Reporting Station
Clear Clear  
Wind Chill: 22°   Ceiling: Unl
Heat Index: 31°   Visibility: 10mi
Dew Point: 26°   Wind: 9mph
Humidity: 84%   Direction: 140°SE
Pressure: 30.16"   Gusts: NA
Location:  37.3991°N, 92.0382°W
Report Text: KTBN 281258Z AUTO 14008KT 10SM CLR M01/M03 A3016 RMK AO2 SLP227 T10081032 $
Loading
Personal Weather Stations






























Interactive Weather Map New forecast layout! Learn more

10-Day Weather Forecast

Advertisements
Track Severe Weather on mobile